Terminal Aerodrome Forecast
Issued by NWS Omaha/Valley, NE

Home | Current Version | Previous Version | Text Only | Print | Product List | Glossary On
Versions: 1 2 3 4 5 6 7 8 9 10 11 12 13 14 15 16 17 18 19
000
FTUS43 KOAX 191736
TAFOMA
TAF
KOMA 191736Z 1918/2018 18019KT P6SM BKN250
     FM192300 17010KT P6SM BKN100
      TEMPO 2002/2006 4SM -RA OVC050
     FM200600 17009KT P6SM OVC050 PROB30 2006/2012 5SM -RA BKN035
     FM201200 18012KT P6SM OVC080=

USA.gov is the U.S. government's official web portal to all federal, state and local government web resources and services.